sensor_id;sensor_type;location;lat;lon;timestamp;P1;durP1;ratioP1;P2;durP2;ratioP2
74227;SDS011;62587;52.352;5.006;2023-03-01T00:01:31;5.25;;;3.72;;
74227;SDS011;62587;52.352;5.006;2023-03-01T00:03:56;4.55;;;4.15;;
74227;SDS011;62587;52.352;5.006;2023-03-01T00:06:23;5.03;;;3.38;;
74227;SDS011;62587;52.352;5.006;2023-03-01T00:08:49;4.80;;;4.30;;
74227;SDS011;62587;52.352;5.006;2023-03-01T00:11:19;5.05;;;4.35;;
74227;SDS011;62587;52.352;5.006;2023-03-01T00:13:48;4.28;;;3.75;;
74227;SDS011;62587;52.352;5.006;2023-03-01T00:16:17;4.65;;;4.00;;
74227;SDS011;62587;52.352;5.006;2023-03-01T00:18:45;4.65;;;4.13;;
74227;SDS011;62587;52.352;5.006;2023-03-01T00:21:10;5.30;;;4.43;;
74227;SDS011;62587;52.352;5.006;2023-03-01T00:23:36;4.93;;;4.43;;
74227;SDS011;62587;52.352;5.006;2023-03-01T00:26:05;4.80;;;4.22;;
74227;SDS011;62587;52.352;5.006;2023-03-01T00:28:32;4.97;;;4.43;;
74227;SDS011;62587;52.352;5.006;2023-03-01T00:31:05;5.40;;;4.47;;
74227;SDS011;62587;52.352;5.006;2023-03-01T00:33:35;5.45;;;4.13;;
74227;SDS011;62587;52.352;5.006;2023-03-01T00:36:01;4.90;;;4.22;;
74227;SDS011;62587;52.352;5.006;2023-03-01T00:38:26;4.85;;;4.30;;
74227;SDS011;62587;52.352;5.006;2023-03-01T00:40:52;5.32;;;4.35;;
74227;SDS011;62587;52.352;5.006;2023-03-01T00:43:18;6.07;;;5.35;;
74227;SDS011;62587;52.352;5.006;2023-03-01T00:45:43;6.57;;;4.43;;
74227;SDS011;62587;52.352;5.006;2023-03-01T00:48:09;5.97;;;5.35;;
74227;SDS011;62587;52.352;5.006;2023-03-01T00:50:34;4.68;;;4.22;;
74227;SDS011;62587;52.352;5.006;2023-03-01T00:52:59;4.95;;;4.22;;
74227;SDS011;62587;52.352;5.006;2023-03-01T00:55:25;6.30;;;4.83;;
74227;SDS011;62587;52.352;5.006;2023-03-01T00:57:50;4.97;;;4.43;;
74227;SDS011;62587;52.352;5.006;2023-03-01T01:00:16;4.82;;;4.40;;
74227;SDS011;62587;52.352;5.006;2023-03-01T01:02:42;5.32;;;4.82;;
74227;SDS011;62587;52.352;5.006;2023-03-01T01:05:08;6.00;;;4.95;;
74227;SDS011;62587;52.352;5.006;2023-03-01T01:07:34;6.03;;;5.00;;
74227;SDS011;62587;52.352;5.006;2023-03-01T01:09:59;5.40;;;4.90;;
74227;SDS011;62587;52.352;5.006;2023-03-01T01:12:25;5.53;;;5.03;;
74227;SDS011;62587;52.352;5.006;2023-03-01T01:14:50;4.75;;;4.35;;
74227;SDS011;62587;52.352;5.006;2023-03-01T01:17:15;6.10;;;5.07;;
74227;SDS011;62587;52.352;5.006;2023-03-01T01:19:41;5.53;;;5.03;;
74227;SDS011;62587;52.352;5.006;2023-03-01T01:22:06;6.35;;;5.75;;
74227;SDS011;62587;52.352;5.006;2023-03-01T01:24:32;5.50;;;4.85;;
74227;SDS011;62587;52.352;5.006;2023-03-01T01:26:57;5.72;;;5.22;;
74227;SDS011;62587;52.352;5.006;2023-03-01T01:29:22;5.45;;;4.95;;
74227;SDS011;62587;52.352;5.006;2023-03-01T01:31:48;5.30;;;4.80;;
74227;SDS011;62587;52.352;5.006;2023-03-01T01:34:18;5.45;;;4.95;;
74227;SDS011;62587;52.352;5.006;2023-03-01T01:36:52;5.90;;;5.30;;
74227;SDS011;62587;52.352;5.006;2023-03-01T01:39:19;5.97;;;5.32;;
74227;SDS011;62587;52.352;5.006;2023-03-01T01:41:45;6.50;;;5.22;;
74227;SDS011;62587;52.352;5.006;2023-03-01T01:44:21;6.82;;;6.22;;
74227;SDS011;62587;52.352;5.006;2023-03-01T01:47:06;5.65;;;5.15;;
74227;SDS011;62587;52.352;5.006;2023-03-01T01:49:58;5.32;;;4.82;;
74227;SDS011;62587;52.352;5.006;2023-03-01T01:52:24;6.07;;;5.30;;
74227;SDS011;62587;52.352;5.006;2023-03-01T01:57:36;5.78;;;5.18;;
74227;SDS011;62587;52.352;5.006;2023-03-01T02:00:06;5.50;;;5.00;;
74227;SDS011;62587;52.352;5.006;2023-03-01T02:02:35;5.55;;;5.00;;
74227;SDS011;62587;52.352;5.006;2023-03-01T02:05:06;6.43;;;5.82;;
74227;SDS011;62587;52.352;5.006;2023-03-01T02:07:39;5.72;;;5.10;;
74227;SDS011;62587;52.352;5.006;2023-03-01T02:10:07;5.60;;;5.10;;
74227;SDS011;62587;52.352;5.006;2023-03-01T02:12:33;6.05;;;5.45;;
74227;SDS011;62587;52.352;5.006;2023-03-01T02:14:59;6.88;;;5.95;;
74227;SDS011;62587;52.352;5.006;2023-03-01T02:17:24;5.53;;;5.03;;
74227;SDS011;62587;52.352;5.006;2023-03-01T02:20:04;6.85;;;6.25;;
74227;SDS011;62587;52.352;5.006;2023-03-01T02:22:34;6.60;;;6.00;;
74227;SDS011;62587;52.352;5.006;2023-03-01T02:30:35;5.93;;;5.32;;
74227;SDS011;62587;52.352;5.006;2023-03-01T02:33:00;6.22;;;5.63;;
74227;SDS011;62587;52.352;5.006;2023-03-01T02:35:37;6.20;;;5.60;;
74227;SDS011;62587;52.352;5.006;2023-03-01T02:40:33;6.30;;;5.53;;
74227;SDS011;62587;52.352;5.006;2023-03-01T02:42:58;5.15;;;4.75;;
74227;SDS011;62587;52.352;5.006;2023-03-01T02:45:24;6.32;;;5.72;;
74227;SDS011;62587;52.352;5.006;2023-03-01T02:47:55;5.60;;;5.00;;
74227;SDS011;62587;52.352;5.006;2023-03-01T02:55:26;5.47;;;4.68;;
74227;SDS011;62587;52.352;5.006;2023-03-01T02:57:52;5.70;;;4.82;;
74227;SDS011;62587;52.352;5.006;2023-03-01T03:00:23;5.28;;;4.78;;
74227;SDS011;62587;52.352;5.006;2023-03-01T03:02:52;5.25;;;4.75;;
74227;SDS011;62587;52.352;5.006;2023-03-01T03:05:23;5.80;;;5.00;;
74227;SDS011;62587;52.352;5.006;2023-03-01T03:07:51;5.90;;;5.03;;
74227;SDS011;62587;52.352;5.006;2023-03-01T03:10:21;5.15;;;4.65;;
74227;SDS011;62587;52.352;5.006;2023-03-01T03:12:58;5.50;;;4.63;;
74227;SDS011;62587;52.352;5.006;2023-03-01T03:15:35;5.03;;;4.63;;
74227;SDS011;62587;52.352;5.006;2023-03-01T03:18:01;5.72;;;5.20;;
74227;SDS011;62587;52.352;5.006;2023-03-01T03:20:28;5.47;;;4.97;;
74227;SDS011;62587;52.352;5.006;2023-03-01T03:22:54;5.43;;;4.93;;
74227;SDS011;62587;52.352;5.006;2023-03-01T03:25:21;5.45;;;4.95;;
74227;SDS011;62587;52.352;5.006;2023-03-01T03:27:48;6.07;;;5.47;;
74227;SDS011;62587;52.352;5.006;2023-03-01T03:30:16;5.38;;;4.88;;
74227;SDS011;62587;52.352;5.006;2023-03-01T03:32:43;5.82;;;5.22;;
74227;SDS011;62587;52.352;5.006;2023-03-01T03:35:18;5.35;;;4.85;;
74227;SDS011;62587;52.352;5.006;2023-03-01T03:37:45;5.95;;;5.18;;
74227;SDS011;62587;52.352;5.006;2023-03-01T03:43:01;5.20;;;4.75;;
74227;SDS011;62587;52.352;5.006;2023-03-01T03:45:28;5.47;;;4.97;;
74227;SDS011;62587;52.352;5.006;2023-03-01T03:47:54;6.40;;;5.80;;
74227;SDS011;62587;52.352;5.006;2023-03-01T03:50:19;4.95;;;4.53;;
74227;SDS011;62587;52.352;5.006;2023-03-01T03:52:45;5.90;;;5.30;;
74227;SDS011;62587;52.352;5.006;2023-03-01T03:55:11;5.50;;;5.00;;
74227;SDS011;62587;52.352;5.006;2023-03-01T03:57:37;5.93;;;5.40;;
74227;SDS011;62587;52.352;5.006;2023-03-01T04:00:04;5.72;;;4.93;;
74227;SDS011;62587;52.352;5.006;2023-03-01T04:02:38;5.53;;;5.03;;
74227;SDS011;62587;52.352;5.006;2023-03-01T04:05:04;5.45;;;4.82;;
74227;SDS011;62587;52.352;5.006;2023-03-01T04:07:30;5.78;;;5.28;;
74227;SDS011;62587;52.352;5.006;2023-03-01T04:09:55;5.63;;;5.13;;
74227;SDS011;62587;52.352;5.006;2023-03-01T04:12:21;5.60;;;4.97;;
74227;SDS011;62587;52.352;5.006;2023-03-01T04:14:48;5.47;;;4.97;;
74227;SDS011;62587;52.352;5.006;2023-03-01T04:17:13;5.05;;;4.60;;
74227;SDS011;62587;52.352;5.006;2023-03-01T04:19:38;5.38;;;4.95;;
74227;SDS011;62587;52.352;5.006;2023-03-01T04:22:04;5.72;;;5.05;;
74227;SDS011;62587;52.352;5.006;2023-03-01T04:24:36;6.15;;;5.55;;
74227;SDS011;62587;52.352;5.006;2023-03-01T04:27:02;5.53;;;5.03;;
74227;SDS011;62587;52.352;5.006;2023-03-01T04:29:27;5.82;;;4.97;;
74227;SDS011;62587;52.352;5.006;2023-03-01T04:31:53;6.63;;;6.03;;
74227;SDS011;62587;52.352;5.006;2023-03-01T04:34:19;5.35;;;4.85;;
74227;SDS011;62587;52.352;5.006;2023-03-01T04:36:44;6.03;;;5.38;;
74227;SDS011;62587;52.352;5.006;2023-03-01T04:39:10;5.00;;;4.60;;
74227;SDS011;62587;52.352;5.006;2023-03-01T04:41:39;5.88;;;5.38;;
74227;SDS011;62587;52.352;5.006;2023-03-01T04:44:05;6.10;;;5.28;;
74227;SDS011;62587;52.352;5.006;2023-03-01T04:46:31;5.95;;;5.35;;
74227;SDS011;62587;52.352;5.006;2023-03-01T04:48:56;5.97;;;5.43;;
74227;SDS011;62587;52.352;5.006;2023-03-01T04:51:21;7.10;;;6.40;;
74227;SDS011;62587;52.352;5.006;2023-03-01T04:53:47;6.72;;;6.13;;
74227;SDS011;62587;52.352;5.006;2023-03-01T04:56:13;6.47;;;5.88;;
74227;SDS011;62587;52.352;5.006;2023-03-01T04:58:39;5.68;;;5.18;;
74227;SDS011;62587;52.352;5.006;2023-03-01T05:01:08;6.43;;;5.82;;
74227;SDS011;62587;52.352;5.006;2023-03-01T05:03:40;6.30;;;5.70;;
74227;SDS011;62587;52.352;5.006;2023-03-01T05:06:06;6.35;;;5.75;;
74227;SDS011;62587;52.352;5.006;2023-03-01T05:08:31;5.95;;;5.35;;
74227;SDS011;62587;52.352;5.006;2023-03-01T05:10:59;6.90;;;6.20;;
74227;SDS011;62587;52.352;5.006;2023-03-01T05:13:24;5.65;;;5.15;;
74227;SDS011;62587;52.352;5.006;2023-03-01T05:15:57;5.75;;;5.15;;
74227;SDS011;62587;52.352;5.006;2023-03-01T05:18:24;6.18;;;5.57;;
74227;SDS011;62587;52.352;5.006;2023-03-01T05:20:53;6.47;;;5.88;;
74227;SDS011;62587;52.352;5.006;2023-03-01T05:23:21;6.90;;;6.25;;
74227;SDS011;62587;52.352;5.006;2023-03-01T05:25:47;6.40;;;5.60;;
74227;SDS011;62587;52.352;5.006;2023-03-01T05:28:14;7.25;;;6.28;;
74227;SDS011;62587;52.352;5.006;2023-03-01T05:30:40;7.30;;;6.28;;
74227;SDS011;62587;52.352;5.006;2023-03-01T05:33:07;7.03;;;6.43;;
74227;SDS011;62587;52.352;5.006;2023-03-01T05:35:42;6.93;;;6.32;;
74227;SDS011;62587;52.352;5.006;2023-03-01T05:38:10;6.93;;;6.30;;
74227;SDS011;62587;52.352;5.006;2023-03-01T05:40:39;6.43;;;5.82;;
74227;SDS011;62587;52.352;5.006;2023-03-01T05:43:07;7.10;;;6.40;;
74227;SDS011;62587;52.352;5.006;2023-03-01T05:45:33;7.28;;;6.57;;
74227;SDS011;62587;52.352;5.006;2023-03-01T05:48:02;7.95;;;7.25;;
74227;SDS011;62587;52.352;5.006;2023-03-01T05:50:31;7.38;;;6.65;;
74227;SDS011;62587;52.352;5.006;2023-03-01T05:55:25;6.22;;;5.63;;
74227;SDS011;62587;52.352;5.006;2023-03-01T05:57:51;6.85;;;6.25;;
74227;SDS011;62587;52.352;5.006;2023-03-01T06:00:17;6.53;;;5.90;;
74227;SDS011;62587;52.352;5.006;2023-03-01T06:02:44;6.95;;;6.32;;
74227;SDS011;62587;52.352;5.006;2023-03-01T06:05:10;6.53;;;5.85;;
74227;SDS011;62587;52.352;5.006;2023-03-01T06:07:37;6.20;;;5.60;;
74227;SDS011;62587;52.352;5.006;2023-03-01T06:10:03;6.35;;;5.75;;
74227;SDS011;62587;52.352;5.006;2023-03-01T06:12:33;6.40;;;5.80;;
74227;SDS011;62587;52.352;5.006;2023-03-01T06:15:00;6.30;;;5.70;;
74227;SDS011;62587;52.352;5.006;2023-03-01T06:17:28;6.30;;;5.70;;
74227;SDS011;62587;52.352;5.006;2023-03-01T06:19:55;6.22;;;5.63;;
74227;SDS011;62587;52.352;5.006;2023-03-01T06:22:20;5.80;;;5.20;;
74227;SDS011;62587;52.352;5.006;2023-03-01T06:24:45;5.40;;;4.90;;
74227;SDS011;62587;52.352;5.006;2023-03-01T06:27:11;5.47;;;4.97;;
74227;SDS011;62587;52.352;5.006;2023-03-01T06:29:36;5.60;;;5.10;;
74227;SDS011;62587;52.352;5.006;2023-03-01T06:32:02;5.85;;;5.32;;
74227;SDS011;62587;52.352;5.006;2023-03-01T06:34:27;5.90;;;5.30;;
74227;SDS011;62587;52.352;5.006;2023-03-01T06:36:53;5.40;;;4.90;;
74227;SDS011;62587;52.352;5.006;2023-03-01T06:39:18;5.35;;;4.85;;
74227;SDS011;62587;52.352;5.006;2023-03-01T06:41:44;5.17;;;4.70;;
74227;SDS011;62587;52.352;5.006;2023-03-01T06:44:09;4.70;;;4.30;;
74227;SDS011;62587;52.352;5.006;2023-03-01T06:46:35;4.60;;;4.20;;
74227;SDS011;62587;52.352;5.006;2023-03-01T06:49:00;4.60;;;4.20;;
74227;SDS011;62587;52.352;5.006;2023-03-01T06:51:25;5.13;;;4.63;;
74227;SDS011;62587;52.352;5.006;2023-03-01T06:53:51;4.35;;;3.95;;
74227;SDS011;62587;52.352;5.006;2023-03-01T06:56:16;3.60;;;3.30;;
74227;SDS011;62587;52.352;5.006;2023-03-01T06:58:42;3.90;;;3.60;;
74227;SDS011;62587;52.352;5.006;2023-03-01T07:01:07;3.83;;;3.30;;
74227;SDS011;62587;52.352;5.006;2023-03-01T07:03:33;3.40;;;3.10;;
74227;SDS011;62587;52.352;5.006;2023-03-01T07:05:59;4.05;;;3.22;;
74227;SDS011;62587;52.352;5.006;2023-03-01T07:08:24;3.85;;;3.38;;
74227;SDS011;62587;52.352;5.006;2023-03-01T07:10:56;3.10;;;2.90;;
74227;SDS011;62587;52.352;5.006;2023-03-01T07:13:23;3.50;;;2.88;;
74227;SDS011;62587;52.352;5.006;2023-03-01T07:15:48;3.72;;;3.10;;
74227;SDS011;62587;52.352;5.006;2023-03-01T07:18:13;2.90;;;2.70;;
74227;SDS011;62587;52.352;5.006;2023-03-01T07:20:39;3.00;;;2.70;;
74227;SDS011;62587;52.352;5.006;2023-03-01T07:23:05;3.03;;;2.70;;
74227;SDS011;62587;52.352;5.006;2023-03-01T07:25:31;3.05;;;2.78;;
74227;SDS011;62587;52.352;5.006;2023-03-01T07:27:57;2.70;;;2.50;;
74227;SDS011;62587;52.352;5.006;2023-03-01T07:30:23;3.10;;;2.90;;
74227;SDS011;62587;52.352;5.006;2023-03-01T07:32:51;3.30;;;3.00;;
74227;SDS011;62587;52.352;5.006;2023-03-01T07:35:16;2.50;;;2.30;;
74227;SDS011;62587;52.352;5.006;2023-03-01T07:37:42;2.30;;;2.10;;
74227;SDS011;62587;52.352;5.006;2023-03-01T07:40:07;2.67;;;2.45;;
74227;SDS011;62587;52.352;5.006;2023-03-01T07:42:33;2.50;;;2.30;;
74227;SDS011;62587;52.352;5.006;2023-03-01T07:44:58;2.80;;;2.60;;
74227;SDS011;62587;52.352;5.006;2023-03-01T07:47:24;2.90;;;2.60;;
74227;SDS011;62587;52.352;5.006;2023-03-01T07:49:49;2.60;;;2.40;;
74227;SDS011;62587;52.352;5.006;2023-03-01T07:52:14;3.03;;;2.83;;
74227;SDS011;62587;52.352;5.006;2023-03-01T07:54:42;2.40;;;2.20;;
74227;SDS011;62587;52.352;5.006;2023-03-01T07:57:09;2.60;;;2.40;;
74227;SDS011;62587;52.352;5.006;2023-03-01T07:59:34;2.85;;;2.10;;
74227;SDS011;62587;52.352;5.006;2023-03-01T08:01:59;2.40;;;2.20;;
74227;SDS011;62587;52.352;5.006;2023-03-01T08:04:25;2.08;;;1.90;;
74227;SDS011;62587;52.352;5.006;2023-03-01T08:06:51;2.50;;;2.17;;
74227;SDS011;62587;52.352;5.006;2023-03-01T08:09:17;3.58;;;2.30;;
74227;SDS011;62587;52.352;5.006;2023-03-01T08:11:42;2.55;;;2.35;;
74227;SDS011;62587;52.352;5.006;2023-03-01T08:14:08;3.13;;;2.83;;
74227;SDS011;62587;52.352;5.006;2023-03-01T08:16:33;4.27;;;2.70;;
74227;SDS011;62587;52.352;5.006;2023-03-01T08:19:10;2.95;;;2.65;;
74227;SDS011;62587;52.352;5.006;2023-03-01T08:21:37;3.05;;;2.85;;
74227;SDS011;62587;52.352;5.006;2023-03-01T08:24:04;4.10;;;2.83;;
74227;SDS011;62587;52.352;5.006;2023-03-01T08:26:31;3.05;;;2.72;;
74227;SDS011;62587;52.352;5.006;2023-03-01T08:28:56;3.67;;;2.75;;
74227;SDS011;62587;52.352;5.006;2023-03-01T08:31:25;3.90;;;3.10;;
74227;SDS011;62587;52.352;5.006;2023-03-01T08:33:53;4.03;;;3.25;;
74227;SDS011;62587;52.352;5.006;2023-03-01T08:36:24;5.18;;;3.70;;
74227;SDS011;62587;52.352;5.006;2023-03-01T08:38:51;5.07;;;3.85;;
74227;SDS011;62587;52.352;5.006;2023-03-01T08:41:17;5.60;;;4.32;;
74227;SDS011;62587;52.352;5.006;2023-03-01T08:43:42;8.68;;;4.53;;
74227;SDS011;62587;52.352;5.006;2023-03-01T08:46:08;5.07;;;3.92;;
74227;SDS011;62587;52.352;5.006;2023-03-01T08:48:34;4.90;;;3.75;;
74227;SDS011;62587;52.352;5.006;2023-03-01T08:51:12;5.43;;;4.22;;
74227;SDS011;62587;52.352;5.006;2023-03-01T08:53:42;6.28;;;4.03;;
74227;SDS011;62587;52.352;5.006;2023-03-01T08:56:08;4.53;;;3.70;;
74227;SDS011;62587;52.352;5.006;2023-03-01T08:58:35;4.65;;;4.03;;
74227;SDS011;62587;52.352;5.006;2023-03-01T09:01:01;4.00;;;3.60;;
74227;SDS011;62587;52.352;5.006;2023-03-01T09:03:32;4.25;;;3.85;;
74227;SDS011;62587;52.352;5.006;2023-03-01T09:06:01;4.22;;;3.78;;
74227;SDS011;62587;52.352;5.006;2023-03-01T09:08:27;4.03;;;3.53;;
74227;SDS011;62587;52.352;5.006;2023-03-01T09:10:53;4.80;;;4.13;;
74227;SDS011;62587;52.352;5.006;2023-03-01T09:13:18;4.10;;;3.70;;
74227;SDS011;62587;52.352;5.006;2023-03-01T09:15:43;4.37;;;3.63;;
74227;SDS011;62587;52.352;5.006;2023-03-01T09:18:08;4.90;;;4.40;;
74227;SDS011;62587;52.352;5.006;2023-03-01T09:20:34;4.95;;;4.53;;
74227;SDS011;62587;52.352;5.006;2023-03-01T09:22:59;4.95;;;4.47;;
74227;SDS011;62587;52.352;5.006;2023-03-01T09:25:25;4.60;;;4.20;;
74227;SDS011;62587;52.352;5.006;2023-03-01T09:27:54;6.07;;;3.97;;
74227;SDS011;62587;52.352;5.006;2023-03-01T09:30:20;4.32;;;3.92;;
74227;SDS011;62587;52.352;5.006;2023-03-01T09:32:46;5.80;;;4.20;;
74227;SDS011;62587;52.352;5.006;2023-03-01T09:35:12;5.68;;;4.47;;
74227;SDS011;62587;52.352;5.006;2023-03-01T09:37:38;6.15;;;4.60;;
74227;SDS011;62587;52.352;5.006;2023-03-01T09:40:17;6.07;;;5.47;;
74227;SDS011;62587;52.352;5.006;2023-03-01T09:42:47;6.18;;;4.82;;
74227;SDS011;62587;52.352;5.006;2023-03-01T09:45:24;6.22;;;4.80;;
74227;SDS011;62587;52.352;5.006;2023-03-01T09:47:52;8.23;;;4.93;;
74227;SDS011;62587;52.352;5.006;2023-03-01T09:50:21;8.05;;;5.30;;
74227;SDS011;62587;52.352;5.006;2023-03-01T10:06:52;6.40;;;5.22;;
74227;SDS011;62587;52.352;5.006;2023-03-01T10:09:45;6.20;;;5.35;;
74227;SDS011;62587;52.352;5.006;2023-03-01T10:12:13;6.25;;;5.03;;
74227;SDS011;62587;52.352;5.006;2023-03-01T10:20:22;6.13;;;5.30;;
74227;SDS011;62587;52.352;5.006;2023-03-01T10:22:50;7.22;;;5.25;;
74227;SDS011;62587;52.352;5.006;2023-03-01T10:28:02;6.38;;;4.68;;
74227;SDS011;62587;52.352;5.006;2023-03-01T10:30:40;6.03;;;5.38;;
74227;SDS011;62587;52.352;5.006;2023-03-01T10:33:22;6.82;;;5.00;;
74227;SDS011;62587;52.352;5.006;2023-03-01T10:35:49;6.38;;;5.78;;
74227;SDS011;62587;52.352;5.006;2023-03-01T10:38:16;5.63;;;5.00;;
74227;SDS011;62587;52.352;5.006;2023-03-01T10:40:59;5.50;;;4.85;;
74227;SDS011;62587;52.352;5.006;2023-03-01T10:43:32;5.25;;;4.68;;
74227;SDS011;62587;52.352;5.006;2023-03-01T10:46:29;5.45;;;4.95;;
74227;SDS011;62587;52.352;5.006;2023-03-01T10:51:48;7.78;;;5.10;;
74227;SDS011;62587;52.352;5.006;2023-03-01T10:54:16;6.18;;;4.75;;
74227;SDS011;62587;52.352;5.006;2023-03-01T10:56:45;5.72;;;5.13;;
74227;SDS011;62587;52.352;5.006;2023-03-01T10:59:20;5.25;;;4.57;;
74227;SDS011;62587;52.352;5.006;2023-03-01T11:02:01;5.63;;;4.22;;
74227;SDS011;62587;52.352;5.006;2023-03-01T11:05:13;5.28;;;4.28;;
74227;SDS011;62587;52.352;5.006;2023-03-01T11:10:27;10.15;;;4.00;;
74227;SDS011;62587;52.352;5.006;2023-03-01T11:13:16;4.75;;;4.13;;
74227;SDS011;62587;52.352;5.006;2023-03-01T11:16:06;5.15;;;4.65;;
74227;SDS011;62587;52.352;5.006;2023-03-01T11:18:35;4.45;;;3.15;;
74227;SDS011;62587;52.352;5.006;2023-03-01T11:21:00;4.72;;;3.50;;
74227;SDS011;62587;52.352;5.006;2023-03-01T11:23:27;3.92;;;3.53;;
74227;SDS011;62587;52.352;5.006;2023-03-01T11:25:56;3.78;;;3.25;;
74227;SDS011;62587;52.352;5.006;2023-03-01T11:28:27;4.25;;;3.90;;
74227;SDS011;62587;52.352;5.006;2023-03-01T11:30:59;5.45;;;3.50;;
74227;SDS011;62587;52.352;5.006;2023-03-01T11:33:33;4.03;;;3.47;;
74227;SDS011;62587;52.352;5.006;2023-03-01T11:36:01;3.33;;;3.03;;
74227;SDS011;62587;52.352;5.006;2023-03-01T11:38:30;5.78;;;3.25;;
74227;SDS011;62587;52.352;5.006;2023-03-01T11:44:00;3.20;;;2.90;;
74227;SDS011;62587;52.352;5.006;2023-03-01T11:57:31;4.03;;;2.90;;
74227;SDS011;62587;52.352;5.006;2023-03-01T12:02:46;3.65;;;2.63;;
74227;SDS011;62587;52.352;5.006;2023-03-01T12:08:18;5.15;;;2.90;;
74227;SDS011;62587;52.352;5.006;2023-03-01T12:10:55;2.85;;;2.60;;
74227;SDS011;62587;52.352;5.006;2023-03-01T12:16:58;3.35;;;2.47;;
74227;SDS011;62587;52.352;5.006;2023-03-01T12:22:30;4.03;;;2.40;;
74227;SDS011;62587;52.352;5.006;2023-03-01T12:33:19;2.90;;;2.60;;
74227;SDS011;62587;52.352;5.006;2023-03-01T12:43:41;3.30;;;2.75;;
74227;SDS011;62587;52.352;5.006;2023-03-01T12:49:10;2.97;;;2.60;;
74227;SDS011;62587;52.352;5.006;2023-03-01T12:51:37;3.58;;;2.88;;
74227;SDS011;62587;52.352;5.006;2023-03-01T12:54:11;3.47;;;2.80;;
74227;SDS011;62587;52.352;5.006;2023-03-01T12:56:40;3.75;;;2.80;;
74227;SDS011;62587;52.352;5.006;2023-03-01T13:01:37;4.45;;;2.80;;
74227;SDS011;62587;52.352;5.006;2023-03-01T13:04:21;3.58;;;3.08;;
74227;SDS011;62587;52.352;5.006;2023-03-01T13:17:47;4.23;;;3.00;;
74227;SDS011;62587;52.352;5.006;2023-03-01T13:20:15;4.40;;;3.50;;
74227;SDS011;62587;52.352;5.006;2023-03-01T13:22:44;4.95;;;3.47;;
74227;SDS011;62587;52.352;5.006;2023-03-01T13:25:15;4.55;;;3.47;;
74227;SDS011;62587;52.352;5.006;2023-03-01T13:27:43;3.83;;;3.30;;
74227;SDS011;62587;52.352;5.006;2023-03-01T13:35:48;4.93;;;3.60;;
74227;SDS011;62587;52.352;5.006;2023-03-01T13:41:11;4.55;;;3.42;;
74227;SDS011;62587;52.352;5.006;2023-03-01T13:43:38;4.93;;;4.10;;
74227;SDS011;62587;52.352;5.006;2023-03-01T13:46:11;4.30;;;3.70;;
74227;SDS011;62587;52.352;5.006;2023-03-01T13:48:47;6.20;;;3.88;;
74227;SDS011;62587;52.352;5.006;2023-03-01T13:51:16;4.57;;;3.65;;
74227;SDS011;62587;52.352;5.006;2023-03-01T13:53:48;4.47;;;3.28;;
74227;SDS011;62587;52.352;5.006;2023-03-01T13:56:21;5.10;;;3.50;;
74227;SDS011;62587;52.352;5.006;2023-03-01T13:59:33;5.40;;;3.50;;
74227;SDS011;62587;52.352;5.006;2023-03-01T14:01:44;4.72;;;3.22;;
74227;SDS011;62587;52.352;5.006;2023-03-01T14:04:23;3.97;;;3.28;;
74227;SDS011;62587;52.352;5.006;2023-03-01T14:10:00;4.47;;;3.40;;
74227;SDS011;62587;52.352;5.006;2023-03-01T14:15:22;4.72;;;3.17;;
74227;SDS011;62587;52.352;5.006;2023-03-01T14:20:32;4.15;;;2.92;;
74227;SDS011;62587;52.352;5.006;2023-03-01T14:23:08;4.38;;;3.03;;
74227;SDS011;62587;52.352;5.006;2023-03-01T14:25:37;4.40;;;3.15;;
74227;SDS011;62587;52.352;5.006;2023-03-01T14:28:04;4.78;;;3.08;;
74227;SDS011;62587;52.352;5.006;2023-03-01T14:30:44;3.95;;;2.92;;
74227;SDS011;62587;52.352;5.006;2023-03-01T14:33:43;4.75;;;3.15;;
74227;SDS011;62587;52.352;5.006;2023-03-01T14:36:06;4.45;;;2.67;;
74227;SDS011;62587;52.352;5.006;2023-03-01T14:38:38;4.38;;;3.55;;
74227;SDS011;62587;52.352;5.006;2023-03-01T14:41:08;3.83;;;2.67;;
74227;SDS011;62587;52.352;5.006;2023-03-01T14:43:39;4.07;;;3.10;;
74227;SDS011;62587;52.352;5.006;2023-03-01T14:46:16;3.60;;;2.83;;
74227;SDS011;62587;52.352;5.006;2023-03-01T14:48:44;4.40;;;2.97;;
74227;SDS011;62587;52.352;5.006;2023-03-01T14:51:10;3.03;;;2.60;;
74227;SDS011;62587;52.352;5.006;2023-03-01T14:53:37;3.65;;;2.85;;
74227;SDS011;62587;52.352;5.006;2023-03-01T14:56:02;3.35;;;2.45;;
74227;SDS011;62587;52.352;5.006;2023-03-01T14:58:28;3.42;;;2.65;;
74227;SDS011;62587;52.352;5.006;2023-03-01T15:00:59;3.65;;;2.60;;
74227;SDS011;62587;52.352;5.006;2023-03-01T15:03:37;3.88;;;2.63;;
74227;SDS011;62587;52.352;5.006;2023-03-01T15:06:07;4.18;;;2.78;;
74227;SDS011;62587;52.352;5.006;2023-03-01T15:08:33;4.43;;;2.67;;
74227;SDS011;62587;52.352;5.006;2023-03-01T15:11:02;3.15;;;2.22;;
74227;SDS011;62587;52.352;5.006;2023-03-01T15:13:43;3.25;;;2.08;;
74227;SDS011;62587;52.352;5.006;2023-03-01T15:18:43;3.42;;;2.50;;
74227;SDS011;62587;52.352;5.006;2023-03-01T15:21:18;2.60;;;1.90;;
74227;SDS011;62587;52.352;5.006;2023-03-01T15:23:55;2.55;;;2.00;;
74227;SDS011;62587;52.352;5.006;2023-03-01T15:26:31;2.60;;;1.90;;
74227;SDS011;62587;52.352;5.006;2023-03-01T15:31:41;2.28;;;1.80;;
74227;SDS011;62587;52.352;5.006;2023-03-01T15:34:09;3.13;;;2.30;;
74227;SDS011;62587;52.352;5.006;2023-03-01T15:36:55;2.78;;;2.00;;
74227;SDS011;62587;52.352;5.006;2023-03-01T15:39:33;3.03;;;2.13;;
74227;SDS011;62587;52.352;5.006;2023-03-01T15:42:05;2.17;;;1.60;;
74227;SDS011;62587;52.352;5.006;2023-03-01T15:44:34;3.53;;;1.60;;
74227;SDS011;62587;52.352;5.006;2023-03-01T15:47:01;2.15;;;1.58;;
74227;SDS011;62587;52.352;5.006;2023-03-01T15:49:39;2.88;;;1.98;;
74227;SDS011;62587;52.352;5.006;2023-03-01T15:52:19;2.08;;;1.70;;
74227;SDS011;62587;52.352;5.006;2023-03-01T15:54:46;2.70;;;1.77;;
74227;SDS011;62587;52.352;5.006;2023-03-01T15:57:14;3.58;;;1.90;;
74227;SDS011;62587;52.352;5.006;2023-03-01T16:02:12;2.85;;;1.48;;
74227;SDS011;62587;52.352;5.006;2023-03-01T16:04:38;1.77;;;1.50;;
74227;SDS011;62587;52.352;5.006;2023-03-01T16:07:04;2.20;;;1.70;;
74227;SDS011;62587;52.352;5.006;2023-03-01T16:09:30;3.70;;;1.88;;
74227;SDS011;62587;52.352;5.006;2023-03-01T16:11:55;2.55;;;1.73;;
74227;SDS011;62587;52.352;5.006;2023-03-01T16:14:20;2.37;;;1.80;;
74227;SDS011;62587;52.352;5.006;2023-03-01T16:16:46;2.30;;;1.70;;
74227;SDS011;62587;52.352;5.006;2023-03-01T16:19:15;1.95;;;1.23;;
74227;SDS011;62587;52.352;5.006;2023-03-01T16:21:41;2.30;;;1.52;;
74227;SDS011;62587;52.352;5.006;2023-03-01T16:24:08;2.40;;;1.60;;
74227;SDS011;62587;52.352;5.006;2023-03-01T16:26:35;2.53;;;1.60;;
74227;SDS011;62587;52.352;5.006;2023-03-01T16:29:02;2.00;;;1.50;;
74227;SDS011;62587;52.352;5.006;2023-03-01T16:31:28;2.38;;;1.58;;
74227;SDS011;62587;52.352;5.006;2023-03-01T16:33:54;1.83;;;1.38;;
74227;SDS011;62587;52.352;5.006;2023-03-01T16:36:23;3.03;;;1.52;;
74227;SDS011;62587;52.352;5.006;2023-03-01T16:38:50;2.00;;;1.63;;
74227;SDS011;62587;52.352;5.006;2023-03-01T16:41:17;2.20;;;1.27;;
74227;SDS011;62587;52.352;5.006;2023-03-01T16:43:45;2.17;;;1.42;;
74227;SDS011;62587;52.352;5.006;2023-03-01T16:48:41;1.35;;;1.10;;
74227;SDS011;62587;52.352;5.006;2023-03-01T16:51:06;2.65;;;1.33;;
74227;SDS011;62587;52.352;5.006;2023-03-01T16:53:32;2.22;;;1.35;;
74227;SDS011;62587;52.352;5.006;2023-03-01T17:00:52;1.63;;;1.30;;
74227;SDS011;62587;52.352;5.006;2023-03-01T17:03:19;2.25;;;1.42;;
74227;SDS011;62587;52.352;5.006;2023-03-01T17:05:45;2.67;;;1.38;;
74227;SDS011;62587;52.352;5.006;2023-03-01T17:08:11;2.65;;;1.45;;
74227;SDS011;62587;52.352;5.006;2023-03-01T17:10:36;2.05;;;1.42;;
74227;SDS011;62587;52.352;5.006;2023-03-01T17:13:01;1.97;;;1.37;;
74227;SDS011;62587;52.352;5.006;2023-03-01T17:15:27;2.47;;;1.50;;
74227;SDS011;62587;52.352;5.006;2023-03-01T17:17:52;1.97;;;1.33;;